Historyczne dane pomiarowe

Dodano dane terminowe – wersja testowa.

Dane z okresu 1951-2019

Wersja bazy: 1.34 [2019-03-16, lista zmian], aktualizacja planowana na 2019-04-15

Dane meteo z obszaru Polski uzyskane na podstawie danych udostępnionych przez Instytut Meteorologii i Gospodarki Wodnej – Państwowy Instytut Badawczy.

 

Wybierz Datę:    

       

TemperaturaWilgotnośćWiatrCiśnienieOpadyŚniegCzas trwania zjawisk
 Stacja t tx tn tng RH VA  wxwx mslp ppp RRR   cm mm wxwxwxwxwxwxwx
1994-08-14 13.7 17.6 10.4 8.8-------- 3.2--- 0.0--------
1994-08-13 16.2 19.2 14.6 13.0-------- 4.6--- 0.0--------
1994-08-12 18.4 23.0 15.4 14.4-------- 0.5--- 0.0--------
1994-08-11 19.5 26.3 16.6 15.0-------- 34.6--- 0.0--------
1994-08-10 21.5 30.1 12.4 9.7-------- 0.0--- 0.0--------
1994-08-09 20.9 28.1 15.8 14.4-------- 0.0--- 0.0--------
1994-08-08 21.7 27.6 16.0 16.0-------- 0.0--- 0.0--------
1994-08-07 22.1 27.8 13.7 11.6-------- 0.2--- 0.0--------
1994-08-06 25.7 30.3 16.5 13.4-------- 0.0--- 0.0--------
1994-08-05 23.8 34.7 11.5 9.0-------- 0.0--- 0.0--------
1994-08-04 22.4 31.1 10.3 8.3-------- 0.0--- 0.0--------
1994-08-03 23.9 29.2 14.7 11.3-------- 0.0--- 0.0--------
1994-08-02 25.6 31.6 20.0 15.5-------- 0.0--- 0.0--------
1994-08-01 29.4 38.7 17.6 14.3-------- 0.0--- 0.0--------
1994-07-31 27.6 37.7 16.9 14.7-------- 0.0--- 0.0--------
1994-07-30 26.7 39.5 16.8 13.4-------- 0.0--- 0.0--------
1994-07-29 25.6 35.9 15.4 12.4-------- 0.0--- 0.0--------
1994-07-28 25.8 36.5 16.3 14.2-------- 0.0--- 0.0--------
1994-07-27 24.1 32.9 18.4 17.2-------- 0.0--- 0.0--------
1994-07-26 24.0 36.5 14.9 11.6-------- 7.6--- 0.0--------
1994-07-25 24.3 34.2 11.2 8.4-------- 0.0--- 0.0--------
1994-07-24 25.2 33.3 12.8 9.8-------- 0.0--- 0.0--------
1994-07-23 23.9 32.1 12.2 8.6-------- 0.0--- 0.0--------
1994-07-22 23.0 33.2 10.5 7.0-------- 0.0--- 0.0--------
1994-07-21 20.1 29.4 7.3 4.8-------- 0.0--- 0.0--------
1994-07-20 18.9 26.3 7.8 4.8-------- 0.0--- 0.0--------
1994-07-19 18.7 24.8 11.9 9.1-------- 0.0--- 0.0--------
1994-07-18 18.7 24.4 11.8 9.2-------- 2.5--- 0.0--------
1994-07-17 20.1 26.4 12.6 10.3-------- 1.5--- 0.0--------
1994-07-16 22.3 26.9 17.2 15.4-------- 0.0--- 0.0--------
1994-07-15 23.6 31.6 14.4 12.0-------- 3.1--- 0.0--------
1994-07-14 25.2 33.3 12.7 10.1-------- 0.0--- 0.0--------
1994-07-13 24.6 31.6 13.4 10.5-------- 0.0--- 0.0--------
1994-07-12 22.6 29.8 11.5 9.1-------- 0.0--- 0.0--------
1994-07-11 20.9 28.4 10.3 7.5-------- 0.0--- 0.0--------
1994-07-10 20.1 25.8 12.8 9.5-------- 0.0--- 0.0--------
1994-07-09 18.6 24.0 13.4 11.4-------- 0.0--- 0.0--------
1994-07-08 14.7 17.5 13.3 13.1-------- 8.2--- 0.0--------
1994-07-07 17.1 25.5 9.4 5.9-------- 20.7--- 0.0--------
1994-07-06 19.4 26.3 11.9 8.8-------- 0.0--- 0.0--------
1994-07-05 19.7 27.0 15.9 15.2-------- 0.0--- 0.0--------
1994-07-04 23.4 30.9 10.6 8.0-------- 0.0--- 0.0--------
1994-07-03 21.6 30.6 9.1 5.7-------- 0.0--- 0.0--------
1994-07-02 20.1 27.6 7.0 4.2-------- 0.0--- 0.0--------
1994-07-01 17.2 23.5 8.0 5.3-------- 0.0--- 0.0--------
1994-06-30 18.9 26.5 16.5 15.4-------- 0.0--- 0.0--------
1994-06-29 25.1 33.9 16.4 14.6-------- 3.0--- 0.0--------
1994-06-28 23.3 29.6 14.4 11.5-------- 0.0--- 0.0--------
1994-06-27 24.9 29.4 14.7 12.1-------- 0.0--- 0.0--------
1994-06-26 22.9 30.4 10.5 7.9-------- 0.0--- 0.0--------
1994-06-25 18.7 28.1 6.0 2.4-------- 0.0--- 0.0--------
1994-06-24 15.4 21.0 8.1 3.2-------- 0.0--- 0.0--------
1994-06-23 16.5 21.8 11.6 8.8-------- 0.0--- 0.0--------
1994-06-22 20.6 23.5 17.0 16.0-------- 0.0--- 0.0--------
1994-06-21 16.7 24.0 6.2 3.9-------- 0.0--- 0.0--------
1994-06-20 17.6 21.3 13.1 10.8-------- 0.0--- 0.0--------
1994-06-19 17.7 23.6 12.4 11.6-------- 0.0--- 0.0--------
1994-06-18 12.7 20.5 6.3 3.5-------- 4.9--- 0.0--------
1994-06-17 11.2 15.5 7.0 4.7-------- 0.0--- 0.0--------
1994-06-16 12.6 16.9 10.5 9.9-------- 2.1--- 0.0--------
231.1 ms

 

Źródłem pochodzenia danych jest Instytut Meteorologii i Gospodarki Wodnej – Państwowy Instytut Badawczy. Dane Instytutu Meteorologii i Gospodarki Wodnej – Państwowego Instytutu Badawczego zostały przetworzone.

Dane źródłowe można odnaleźć na stronie https://dane.imgw.pl